Main page
METAR-TAF:

METAR-TAF

Airports :

Marham, England

RAF Marham

latitude: 52-39N, longitude: 000-34E, elevation: 23 m

Current weather observation

The report was made 11 minutes ago, at 11:50 UTC
Wind 17 kt from the West/Southwest
Temperature 12°C
Humidity 88%
Pressure 1010 hPa
Visibility 10 km or more
Few clouds at a height of 1200 ft
Broken clouds at a height of 5000 ft

METAR: EGYM 201150Z 24017KT 9999 FEW012 BKN050 12/10 Q1010 BLU TEMPO SCT015 WHT

Time: 12:01 (12:01 UTC)

Forecast

The report was made 1 hour and 21 minutes ago, at 10:40 UTC
Forecast valid from 20 at 12 UTC to 20 at 21 UTC
Wind 15 kt from the Southwest with gusts up to 25 kt
Visibility 10 km or more
Broken clouds at a height of 1200 ft
Becoming
from 20 at 12 UTC to 20 at 15 UTC
Wind 12 kt from the West/Southwest
Broken clouds at a height of 2400 ft

TAF: EGYM 201040Z 2012/2021 23015G25KT 9999 BKN012 BECMG 2012/2015 24012KT BKN024

Weather observations and forecasts of more than 4000 airports (METAR and TAF reports).

The available stations are represented by yellow and red dots on the map.

Hover mouse over dot to see the name of the station.

Then click to see weather observations and forecasts.

To change the map : click on the green buttons with a black cross to zoom in, on the green button with a dash to zoom out, or on the green arrows for adjacent maps.


METAR-TAF: